Time;durP1;ratioP1;P1;durP2;ratioP2;P2;SDS_P1;SDS_P2;PMS_P1;PMS_P2;Temp;Humidity;BMP_temperature;BMP_pressure;BME280_temperature;BME280_humidity;BME280_pressure;Samples;Min_cycle;Max_cycle;Signal;HPM_P1;HPM_P2
2024/04/19 00:00:53;;;;;;;9.45;4.65;;;;;;;;;;1924614;74;21074;-44
2024/04/19 00:03:22;;;;;;;7.10;4.20;;;;;;;;;;1924638;74;21027;-44
2024/04/19 00:05:51;;;;;;;10.72;4.33;;;;;;;;;;1924657;74;21031;-44
2024/04/19 00:08:35;;;;;;;9.48;4.10;;;;;;;;;;1924657;74;21141;-45
2024/04/19 00:11:04;;;;;;;9.60;4.15;;;;;;;;;;1924695;74;21126;-44
2024/04/19 00:13:33;;;;;;;7.12;4.40;;;;;;;;;;1924712;74;21076;-44
2024/04/19 00:16:01;;;;;;;10.80;4.78;;;;;;;;;;1924590;74;21163;-44
2024/04/19 00:18:30;;;;;;;7.20;4.80;;;;;;;;;;1924652;74;21023;-45
2024/04/19 00:20:59;;;;;;;8.98;4.28;;;;;;;;;;1924638;74;21023;-45
2024/04/19 00:23:27;;;;;;;9.58;4.72;;;;;;;;;;1924670;74;21030;-44
2024/04/19 00:25:57;;;;;;;11.95;5.25;;;;;;;;;;1924608;74;21078;-44
2024/04/19 00:28:27;;;;;;;8.93;4.60;;;;;;;;;;1917002;74;21010;-44
2024/04/19 00:30:56;;;;;;;8.70;5.22;;;;;;;;;;1924731;74;21082;-44
2024/04/19 00:33:24;;;;;;;10.72;5.28;;;;;;;;;;1924718;74;21129;-45
2024/04/19 00:35:53;;;;;;;11.75;5.78;;;;;;;;;;1924650;74;21078;-44
2024/04/19 00:38:22;;;;;;;11.73;5.58;;;;;;;;;;1924578;74;21108;-45
2024/04/19 00:40:50;;;;;;;9.35;5.33;;;;;;;;;;1924703;74;21188;-44
2024/04/19 00:43:19;;;;;;;9.08;5.45;;;;;;;;;;1924732;74;21086;-44
2024/04/19 00:45:48;;;;;;;8.38;4.70;;;;;;;;;;1924633;74;21140;-44
2024/04/19 00:48:18;;;;;;;10.40;5.70;;;;;;;;;;1916286;74;21121;-44
2024/04/19 00:50:59;;;;;;;9.30;5.37;;;;;;;;;;1905217;75;21150;-44
2024/04/19 00:53:28;;;;;;;14.00;5.20;;;;;;;;;;1905221;74;21031;-44
2024/04/19 00:55:58;;;;;;;12.88;4.97;;;;;;;;;;1905200;75;21075;-44
2024/04/19 00:58:27;;;;;;;6.35;4.92;;;;;;;;;;1905221;74;21106;-44
2024/04/19 01:00:57;;;;;;;8.73;5.53;;;;;;;;;;1905228;75;21141;-44
2024/04/19 01:03:25;;;;;;;8.95;5.60;;;;;;;;;;1905175;75;21075;-44
2024/04/19 01:05:54;;;;;;;12.90;6.35;;;;;;;;;;1905207;75;21087;-44
2024/04/19 01:08:28;;;;;;;;;;;;;;;;;;1908034;75;21168;-44
2024/04/19 01:10:57;;;;;;;9.60;5.80;;;;;;;;;;1905175;75;20755;-44
2024/04/19 01:13:26;;;;;;;8.58;5.67;;;;;;;;;;1905157;75;21190;-43
2024/04/19 01:15:54;;;;;;;10.18;6.10;;;;;;;;;;1905407;75;21264;-44
2024/04/19 01:18:23;;;;;;;10.88;5.70;;;;;;;;;;1905224;75;21139;-44
2024/04/19 01:20:52;;;;;;;9.70;5.87;;;;;;;;;;1905211;75;21067;-44
2024/04/19 01:23:21;;;;;;;13.03;8.00;;;;;;;;;;1905213;75;21190;-44
2024/04/19 01:25:50;;;;;;;8.98;6.53;;;;;;;;;;1905213;75;21241;-44
2024/04/19 01:28:18;;;;;;;10.82;6.45;;;;;;;;;;1905121;75;21210;-44
2024/04/19 01:30:47;;;;;;;12.10;6.10;;;;;;;;;;1905155;75;21304;-44
2024/04/19 01:33:15;;;;;;;14.38;6.78;;;;;;;;;;1905254;75;21093;-44
2024/04/19 01:35:44;;;;;;;9.95;5.50;;;;;;;;;;1905148;75;21305;-45
2024/04/19 01:38:12;;;;;;;12.98;6.58;;;;;;;;;;1905095;75;21356;-46
2024/04/19 01:40:41;;;;;;;9.75;5.97;;;;;;;;;;1905180;75;21267;-46
2024/04/19 01:43:09;;;;;;;10.68;7.15;;;;;;;;;;1905099;75;21292;-44
2024/04/19 01:45:38;;;;;;;17.07;7.33;;;;;;;;;;1905258;75;21288;-45
2024/04/19 01:48:07;;;;;;;12.05;7.67;;;;;;;;;;1908225;74;21165;-44
2024/04/19 01:50:36;;;;;;;14.73;7.97;;;;;;;;;;1924671;74;21351;-44
2024/04/19 01:53:04;;;;;;;12.55;7.65;;;;;;;;;;1924499;74;21493;-44
2024/04/19 01:55:33;;;;;;;10.18;6.47;;;;;;;;;;1924507;74;21098;-44
2024/04/19 01:58:01;;;;;;;12.07;7.60;;;;;;;;;;1924417;74;21324;-44
2024/04/19 02:00:30;;;;;;;11.25;6.80;;;;;;;;;;1924487;74;21268;-44
2024/04/19 02:02:59;;;;;;;10.48;6.85;;;;;;;;;;1924489;74;21232;-44
2024/04/19 02:05:28;;;;;;;12.88;7.22;;;;;;;;;;1924517;74;21249;-45
2024/04/19 02:07:56;;;;;;;8.78;5.87;;;;;;;;;;1924569;74;21134;-44
2024/04/19 02:10:25;;;;;;;12.03;6.15;;;;;;;;;;1924707;74;21245;-45
2024/04/19 02:12:53;;;;;;;11.30;6.10;;;;;;;;;;1924634;74;21316;-45
2024/04/19 02:15:21;;;;;;;10.38;6.03;;;;;;;;;;1924719;74;21088;-44
2024/04/19 02:17:50;;;;;;;9.65;5.37;;;;;;;;;;1924489;74;21274;-44
2024/04/19 02:20:19;;;;;;;10.55;5.87;;;;;;;;;;1924487;74;21380;-45
2024/04/19 02:22:47;;;;;;;10.32;6.20;;;;;;;;;;1924555;74;21173;-44
2024/04/19 02:25:16;;;;;;;11.12;6.60;;;;;;;;;;1924543;74;21171;-44
2024/04/19 02:33:18;;;;;;;8.95;7.22;;;;;;;;;;1924447;74;21130;-44
2024/04/19 02:35:46;;;;;;;10.98;7.08;;;;;;;;;;1924634;74;21099;-44
2024/04/19 02:38:15;;;;;;;9.48;7.47;;;;;;;;;;1924604;74;21022;-44
2024/04/19 02:40:43;;;;;;;11.45;7.42;;;;;;;;;;1924547;74;21227;-44
2024/04/19 02:43:12;;;;;;;11.43;7.08;;;;;;;;;;1924489;74;21130;-44
2024/04/19 02:45:42;;;;;;;11.30;7.67;;;;;;;;;;1921511;74;21245;-44
2024/04/19 02:48:11;;;;;;;14.85;8.18;;;;;;;;;;1924543;74;21174;-44
2024/04/19 02:50:40;;;;;;;11.85;8.45;;;;;;;;;;1914589;75;21215;-44
2024/04/19 02:53:10;;;;;;;12.88;8.78;;;;;;;;;;1913165;75;21180;-44
2024/04/19 02:55:39;;;;;;;10.75;7.47;;;;;;;;;;1914769;75;21195;-44
2024/04/19 02:58:07;;;;;;;14.43;8.38;;;;;;;;;;1914707;75;21041;-44
2024/04/19 03:00:43;;;;;;;15.13;8.10;;;;;;;;;;1914772;75;21140;-44
2024/04/19 03:03:11;;;;;;;10.65;7.20;;;;;;;;;;1914707;75;21317;-44
2024/04/19 03:05:40;;;;;;;12.23;8.20;;;;;;;;;;1914741;75;21179;-44
2024/04/19 03:08:09;;;;;;;11.30;7.12;;;;;;;;;;1914644;75;21270;-43
2024/04/19 03:10:41;;;;;;;13.60;7.67;;;;;;;;;;1914728;75;21239;-43
2024/04/19 03:13:10;;;;;;;9.38;7.15;;;;;;;;;;1914755;75;21116;-45
2024/04/19 03:15:39;;;;;;;17.27;7.70;;;;;;;;;;1914768;75;21254;-44
2024/04/19 03:18:08;;;;;;;13.13;7.92;;;;;;;;;;1914683;75;21258;-44
2024/04/19 03:20:36;;;;;;;12.07;8.63;;;;;;;;;;1914719;75;21203;-44
2024/04/19 03:23:05;;;;;;;14.90;7.75;;;;;;;;;;1914714;75;21262;-44
2024/04/19 03:25:35;;;;;;;12.53;7.08;;;;;;;;;;1914786;75;21081;-44
2024/04/19 03:28:03;;;;;;;8.63;7.45;;;;;;;;;;1914751;75;21590;-44
2024/04/19 03:30:36;;;;;;;17.55;8.70;;;;;;;;;;1914708;75;21194;-44
2024/04/19 03:33:05;;;;;;;13.78;9.35;;;;;;;;;;1914745;75;21297;-44
2024/04/19 03:35:33;;;;;;;15.08;8.05;;;;;;;;;;1914550;75;21285;-44
2024/04/19 03:38:02;;;;;;;9.38;7.42;;;;;;;;;;1914715;75;21140;-44
2024/04/19 03:40:31;;;;;;;12.95;7.85;;;;;;;;;;1914739;75;21137;-44
2024/04/19 03:42:59;;;;;;;13.40;7.67;;;;;;;;;;1914768;75;21254;-44
2024/04/19 03:45:41;;;;;;;14.07;7.65;;;;;;;;;;1914698;75;21226;-44
2024/04/19 03:48:10;;;;;;;12.88;7.75;;;;;;;;;;1914723;74;21131;-43
2024/04/19 03:50:39;;;;;;;20.00;8.68;;;;;;;;;;1907244;74;21174;-43
2024/04/19 03:53:08;;;;;;;18.92;8.33;;;;;;;;;;1905326;75;21151;-44
2024/04/19 03:55:36;;;;;;;16.62;9.00;;;;;;;;;;1905280;75;21266;-43
2024/04/19 03:58:05;;;;;;;17.23;9.30;;;;;;;;;;1905300;75;21229;-43
2024/04/19 04:00:35;;;;;;;14.30;8.03;;;;;;;;;;1905278;74;21266;-44
2024/04/19 04:03:04;;;;;;;13.62;8.75;;;;;;;;;;1905241;75;21194;-43
2024/04/19 04:05:32;;;;;;;14.25;8.53;;;;;;;;;;1905175;75;21381;-44
2024/04/19 04:08:01;;;;;;;19.15;10.03;;;;;;;;;;1905194;75;21279;-44
2024/04/19 04:10:30;;;;;;;17.62;9.18;;;;;;;;;;1905264;75;21087;-43
2024/04/19 04:12:59;;;;;;;17.48;9.70;;;;;;;;;;1905384;75;21250;-44
2024/04/19 04:15:27;;;;;;;13.40;8.58;;;;;;;;;;1905074;75;21610;-43
2024/04/19 04:17:57;;;;;;;13.43;9.13;;;;;;;;;;1905158;75;21385;-44
2024/04/19 04:20:25;;;;;;;15.78;8.43;;;;;;;;;;1905252;75;21178;-44
2024/04/19 04:22:54;;;;;;;15.68;8.68;;;;;;;;;;1905135;75;21452;-44
2024/04/19 04:25:22;;;;;;;14.45;8.53;;;;;;;;;;1905169;75;21202;-44
2024/04/19 04:27:52;;;;;;;12.05;8.15;;;;;;;;;;1905185;75;21149;-43
2024/04/19 04:30:20;;;;;;;15.40;8.63;;;;;;;;;;1905219;75;21186;-43
2024/04/19 04:32:49;;;;;;;16.15;8.55;;;;;;;;;;1905188;75;21214;-46
2024/04/19 04:35:18;;;;;;;13.88;7.92;;;;;;;;;;1905121;75;21146;-43
2024/04/19 04:37:47;;;;;;;16.67;8.70;;;;;;;;;;1905325;75;21067;-44
2024/04/19 04:40:15;;;;;;;13.10;8.78;;;;;;;;;;1905183;75;21252;-43
2024/04/19 04:42:43;;;;;;;17.82;7.58;;;;;;;;;;1905311;75;21071;-45
2024/04/19 04:45:12;;;;;;;13.13;7.00;;;;;;;;;;1905190;75;21176;-43
2024/04/19 04:47:41;;;;;;;11.65;6.55;;;;;;;;;;1905106;75;21265;-46
2024/04/19 04:50:10;;;;;;;14.53;7.95;;;;;;;;;;1905276;74;21238;-44
2024/04/19 04:52:39;;;;;;;15.30;7.60;;;;;;;;;;1905237;75;21031;-44
2024/04/19 04:55:08;;;;;;;9.03;5.28;;;;;;;;;;1905247;75;21226;-44
2024/04/19 04:57:36;;;;;;;11.33;5.72;;;;;;;;;;1905235;75;21079;-44
2024/04/19 05:00:06;;;;;;;12.60;6.15;;;;;;;;;;1905225;75;21122;-44
2024/04/19 05:02:35;;;;;;;9.10;6.55;;;;;;;;;;1905149;75;21186;-44
2024/04/19 05:05:04;;;;;;;14.00;8.75;;;;;;;;;;1905244;75;21174;-44
2024/04/19 05:07:32;;;;;;;9.08;6.03;;;;;;;;;;1905084;75;21131;-44
2024/04/19 05:10:01;;;;;;;7.65;6.05;;;;;;;;;;1905102;75;21454;-44
2024/04/19 05:12:30;;;;;;;10.95;7.15;;;;;;;;;;1905149;75;21131;-44
2024/04/19 05:14:59;;;;;;;9.43;6.60;;;;;;;;;;1905191;75;21257;-45
2024/04/19 05:17:28;;;;;;;12.70;6.58;;;;;;;;;;1905090;75;21198;-44
2024/04/19 05:19:56;;;;;;;10.28;6.50;;;;;;;;;;1905201;75;21209;-44
2024/04/19 05:22:25;;;;;;;12.15;8.35;;;;;;;;;;1905131;75;21238;-45
2024/04/19 05:24:53;;;;;;;13.65;8.88;;;;;;;;;;1905233;75;21321;-44
2024/04/19 05:27:22;;;;;;;11.08;6.72;;;;;;;;;;1905218;75;21327;-44
2024/04/19 05:29:51;;;;;;;13.10;6.87;;;;;;;;;;1905005;75;21087;-44
2024/04/19 05:32:19;;;;;;;11.38;6.87;;;;;;;;;;1904990;75;21146;-44
2024/04/19 05:34:48;;;;;;;10.38;6.60;;;;;;;;;;1905119;75;21209;-45
2024/04/19 05:37:19;;;;;;;12.78;7.30;;;;;;;;;;1905164;75;21055;-44
2024/04/19 05:39:47;;;;;;;11.28;7.15;;;;;;;;;;1905203;75;21589;-45
2024/04/19 05:42:15;;;;;;;15.28;8.75;;;;;;;;;;1905096;75;21200;-44
2024/04/19 05:44:44;;;;;;;13.78;8.13;;;;;;;;;;1905165;75;21228;-45
2024/04/19 05:47:13;;;;;;;16.15;7.70;;;;;;;;;;1905176;75;21504;-45
2024/04/19 05:49:43;;;;;;;12.40;8.55;;;;;;;;;;1905173;75;21044;-44
2024/04/19 05:52:11;;;;;;;14.80;7.65;;;;;;;;;;1905073;75;21135;-45
2024/04/19 05:54:40;;;;;;;11.43;8.33;;;;;;;;;;1905138;75;21161;-45
2024/04/19 05:57:08;;;;;;;11.93;8.73;;;;;;;;;;1905188;75;21193;-45
2024/04/19 05:59:37;;;;;;;10.90;7.50;;;;;;;;;;1905143;75;21150;-45
2024/04/19 06:02:06;;;;;;;12.05;8.30;;;;;;;;;;1905099;75;21150;-45
2024/04/19 06:04:36;;;;;;;14.20;7.90;;;;;;;;;;1905149;75;21079;-44
2024/04/19 06:07:05;;;;;;;11.97;7.25;;;;;;;;;;1905115;75;21321;-44
2024/04/19 06:09:34;;;;;;;11.30;7.37;;;;;;;;;;1905332;75;21157;-45
2024/04/19 06:12:02;;;;;;;11.68;6.37;;;;;;;;;;1905111;75;21139;-44
2024/04/19 06:14:31;;;;;;;10.38;6.25;;;;;;;;;;1905099;75;21325;-45
2024/04/19 06:17:00;;;;;;;10.45;6.20;;;;;;;;;;1905144;75;21032;-45
2024/04/19 06:19:28;;;;;;;11.78;6.10;;;;;;;;;;1905255;75;21270;-44
2024/04/19 06:21:57;;;;;;;17.02;6.50;;;;;;;;;;1905072;75;21166;-45
2024/04/19 06:24:26;;;;;;;11.53;5.92;;;;;;;;;;1905134;75;21095;-44
2024/04/19 06:26:54;;;;;;;19.07;6.90;;;;;;;;;;1905125;75;21091;-45
2024/04/19 06:29:23;;;;;;;13.05;5.92;;;;;;;;;;1905301;75;21105;-44
2024/04/19 06:31:52;;;;;;;8.83;4.90;;;;;;;;;;1905216;75;21220;-45
2024/04/19 06:34:20;;;;;;;8.30;5.62;;;;;;;;;;1905234;75;21202;-44
2024/04/19 06:36:49;;;;;;;6.75;5.12;;;;;;;;;;1905167;75;21142;-44
2024/04/19 06:39:28;;;;;;;10.48;5.15;;;;;;;;;;1905355;75;21023;-45
2024/04/19 06:41:54;;;;;;;11.75;4.65;;;;;;;;;;1904462;74;21762;-45
2024/04/19 06:44:22;;;;;;;7.95;4.37;;;;;;;;;;1905395;74;21224;-44
2024/04/19 06:46:51;;;;;;;6.45;4.15;;;;;;;;;;1905211;75;21325;-45
2024/04/19 06:49:19;;;;;;;12.90;5.00;;;;;;;;;;1905347;75;21020;-44
2024/04/19 06:51:48;;;;;;;13.93;6.50;;;;;;;;;;1917935;74;21149;-44
2024/04/19 06:54:17;;;;;;;8.75;4.70;;;;;;;;;;1924514;74;21578;-45
2024/04/19 06:56:45;;;;;;;12.47;6.55;;;;;;;;;;1924552;74;21123;-45
2024/04/19 06:59:14;;;;;;;7.58;4.45;;;;;;;;;;1924648;74;21213;-44
2024/04/19 07:01:43;;;;;;;7.95;4.47;;;;;;;;;;1924597;74;21215;-44
2024/04/19 07:04:12;;;;;;;8.70;5.25;;;;;;;;;;1924706;74;21193;-44
2024/04/19 07:06:41;;;;;;;13.53;6.75;;;;;;;;;;1924765;74;21130;-44
2024/04/19 07:09:12;;;;;;;12.68;6.42;;;;;;;;;;1924600;74;21314;-44
2024/04/19 07:11:40;;;;;;;8.78;6.10;;;;;;;;;;1924709;74;21603;-45
2024/04/19 07:14:09;;;;;;;12.58;6.62;;;;;;;;;;1924698;74;21332;-44
2024/04/19 07:16:38;;;;;;;12.98;6.67;;;;;;;;;;1924559;74;21275;-44
2024/04/19 07:19:06;;;;;;;11.70;5.70;;;;;;;;;;1924622;74;21146;-44
2024/04/19 07:21:35;;;;;;;5.67;4.50;;;;;;;;;;1924602;74;21118;-45
2024/04/19 07:24:04;;;;;;;9.33;3.50;;;;;;;;;;1924648;74;21091;-45
2024/04/19 07:26:38;;;;;;;6.97;3.20;;;;;;;;;;1924669;74;21655;-45
2024/04/19 07:29:02;;;;;;;11.30;3.47;;;;;;;;;;1923647;74;21043;-45
2024/04/19 07:31:31;;;;;;;5.78;3.58;;;;;;;;;;1924555;74;21224;-44
2024/04/19 07:33:59;;;;;;;5.92;4.05;;;;;;;;;;1924611;74;21145;-45
2024/04/19 07:36:28;;;;;;;7.42;3.80;;;;;;;;;;1924600;74;21215;-45
2024/04/19 07:38:57;;;;;;;5.05;3.40;;;;;;;;;;1924605;74;21149;-44
2024/04/19 07:41:26;;;;;;;13.83;3.87;;;;;;;;;;1924571;74;21141;-43
2024/04/19 07:43:55;;;;;;;6.92;3.50;;;;;;;;;;1924730;74;20991;-44
2024/04/19 07:46:24;;;;;;;7.30;3.55;;;;;;;;;;1924687;74;21074;-44
2024/04/19 07:48:52;;;;;;;10.70;4.20;;;;;;;;;;1924573;74;21150;-44
2024/04/19 07:51:21;;;;;;;7.00;3.20;;;;;;;;;;1924662;74;21042;-44
2024/04/19 07:53:50;;;;;;;5.97;2.67;;;;;;;;;;1924793;74;20971;-44
2024/04/19 07:56:18;;;;;;;4.85;2.42;;;;;;;;;;1924424;74;21505;-44
2024/04/19 07:58:47;;;;;;;11.08;3.95;;;;;;;;;;1924710;74;21095;-44
2024/04/19 08:01:16;;;;;;;10.20;3.08;;;;;;;;;;1924674;74;21061;-44
2024/04/19 08:03:48;;;;;;;6.45;2.80;;;;;;;;;;1924601;74;21083;-44
2024/04/19 08:06:14;;;;;;;8.73;3.27;;;;;;;;;;1924457;74;21548;-44
2024/04/19 08:08:45;;;;;;;6.87;3.22;;;;;;;;;;1924605;74;21205;-44
2024/04/19 08:11:12;;;;;;;4.08;2.95;;;;;;;;;;1895413;74;21261;-44
2024/04/19 08:13:41;;;;;;;6.75;3.02;;;;;;;;;;1892295;74;21174;-44
2024/04/19 08:16:10;;;;;;;5.45;3.05;;;;;;;;;;1913895;74;21096;-44
2024/04/19 08:18:38;;;;;;;4.62;3.45;;;;;;;;;;1890890;76;21158;-44
2024/04/19 08:21:07;;;;;;;5.58;2.72;;;;;;;;;;1899882;74;21151;-44
2024/04/19 08:23:35;;;;;;;9.00;4.70;;;;;;;;;;1899220;74;21090;-44
2024/04/19 08:26:04;;;;;;;11.60;6.72;;;;;;;;;;1905399;74;21547;-44
2024/04/19 08:28:33;;;;;;;10.32;5.33;;;;;;;;;;1919340;74;21015;-45
2024/04/19 08:31:01;;;;;;;7.47;3.60;;;;;;;;;;1917030;74;21122;-44
2024/04/19 08:33:30;;;;;;;6.33;3.47;;;;;;;;;;1912476;74;21129;-45
2024/04/19 08:35:59;;;;;;;13.35;3.62;;;;;;;;;;1905700;74;21084;-44
2024/04/19 08:38:27;;;;;;;7.60;4.10;;;;;;;;;;1908052;74;21220;-43
2024/04/19 08:40:59;;;;;;;10.78;4.10;;;;;;;;;;1908240;74;21184;-43
2024/04/19 08:43:29;;;;;;;8.13;3.80;;;;;;;;;;1908965;74;21030;-44
2024/04/19 08:45:58;;;;;;;5.80;3.67;;;;;;;;;;1904301;74;21123;-46
2024/04/19 08:48:27;;;;;;;4.10;3.10;;;;;;;;;;1904625;74;21163;-43
2024/04/19 08:50:57;;;;;;;5.95;3.72;;;;;;;;;;1909477;74;21171;-45
2024/04/19 08:53:26;;;;;;;4.33;3.47;;;;;;;;;;1923877;74;21556;-45
2024/04/19 08:55:55;;;;;;;10.55;7.12;;;;;;;;;;1923825;74;21039;-46
2024/04/19 08:58:24;;;;;;;9.50;3.85;;;;;;;;;;1924003;74;21153;-46
2024/04/19 09:00:52;;;;;;;7.20;4.78;;;;;;;;;;1914024;74;21088;-44
2024/04/19 09:03:21;;;;;;;8.23;4.42;;;;;;;;;;1923859;74;21102;-44
2024/04/19 09:05:49;;;;;;;4.97;3.70;;;;;;;;;;1924097;74;21091;-44
2024/04/19 09:08:18;;;;;;;8.78;4.53;;;;;;;;;;1923838;74;21088;-44
2024/04/19 09:10:48;;;;;;;7.00;3.87;;;;;;;;;;1918821;74;21116;-46
2024/04/19 09:13:17;;;;;;;9.35;4.37;;;;;;;;;;1900306;74;21003;-43
2024/04/19 09:15:49;;;;;;;7.83;4.17;;;;;;;;;;1902631;74;21016;-44
2024/04/19 09:18:17;;;;;;;5.10;3.72;;;;;;;;;;1919302;74;21093;-45
2024/04/19 09:20:45;;;;;;;7.30;3.60;;;;;;;;;;1908369;74;21336;-44
2024/04/19 09:23:14;;;;;;;9.90;3.80;;;;;;;;;;1908982;74;21099;-44
2024/04/19 09:25:48;;;;;;;8.08;4.03;;;;;;;;;;1906583;74;21125;-44
2024/04/19 09:28:16;;;;;;;8.25;4.00;;;;;;;;;;1905913;74;21089;-44
2024/04/19 09:30:45;;;;;;;9.50;3.95;;;;;;;;;;1909534;74;21022;-44
2024/04/19 09:33:17;;;;;;;5.75;3.95;;;;;;;;;;1908827;74;21028;-44
2024/04/19 09:35:46;;;;;;;7.67;3.75;;;;;;;;;;1911422;74;21090;-43
2024/04/19 09:38:16;;;;;;;6.40;3.83;;;;;;;;;;1917969;74;21023;-44
2024/04/19 09:40:46;;;;;;;6.60;3.75;;;;;;;;;;1908660;74;21024;-44
2024/04/19 09:43:23;;;;;;;8.40;4.03;;;;;;;;;;1906493;74;21150;-44
2024/04/19 09:45:51;;;;;;;9.18;4.50;;;;;;;;;;1905104;74;21702;-42
2024/04/19 09:48:22;;;;;;;9.20;3.85;;;;;;;;;;1908210;74;21550;-44
2024/04/19 09:50:52;;;;;;;7.87;4.55;;;;;;;;;;1909417;74;21086;-44
2024/04/19 09:53:31;;;;;;;12.47;4.70;;;;;;;;;;1901091;74;21056;-45
2024/04/19 09:56:17;;;;;;;10.90;4.67;;;;;;;;;;1899794;75;21027;-43
2024/04/19 09:58:47;;;;;;;7.47;3.90;;;;;;;;;;1899890;75;21070;-44
2024/04/19 10:01:16;;;;;;;9.35;4.80;;;;;;;;;;1899337;75;21051;-44
2024/04/19 10:03:46;;;;;;;8.58;4.37;;;;;;;;;;1897397;75;21044;-45
2024/04/19 10:06:26;;;;;;;10.80;4.37;;;;;;;;;;1889395;75;21059;-42
2024/04/19 10:08:57;;;;;;;4.83;3.83;;;;;;;;;;1881346;76;21241;-44
2024/04/19 10:11:25;;;;;;;8.20;3.80;;;;;;;;;;1882128;76;21096;-43
2024/04/19 10:13:54;;;;;;;4.53;3.58;;;;;;;;;;1909077;75;21009;-44
2024/04/19 10:16:23;;;;;;;6.12;3.37;;;;;;;;;;1914738;75;21097;-44
2024/04/19 10:18:51;;;;;;;4.20;3.58;;;;;;;;;;1914818;75;21025;-44
2024/04/19 10:21:21;;;;;;;6.00;3.87;;;;;;;;;;1914841;75;21011;-44
2024/04/19 10:23:50;;;;;;;8.50;4.62;;;;;;;;;;1909651;74;21056;-44
2024/04/19 10:26:22;;;;;;;4.95;3.62;;;;;;;;;;1882197;76;21021;-44
2024/04/19 10:28:51;;;;;;;5.65;3.70;;;;;;;;;;1882176;76;21033;-45
2024/04/19 10:31:22;;;;;;;5.95;3.55;;;;;;;;;;1882375;76;21025;-45
2024/04/19 10:33:51;;;;;;;7.33;3.67;;;;;;;;;;1882255;76;20985;-45
2024/04/19 10:36:19;;;;;;;7.37;4.33;;;;;;;;;;1882168;76;21077;-44
2024/04/19 10:38:49;;;;;;;6.75;3.62;;;;;;;;;;1886703;75;21043;-44
2024/04/19 10:41:18;;;;;;;9.58;3.98;;;;;;;;;;1898136;75;21024;-44
2024/04/19 10:43:46;;;;;;;3.77;2.75;;;;;;;;;;1897051;75;21153;-45
2024/04/19 10:46:18;;;;;;;4.00;3.30;;;;;;;;;;1882219;76;21041;-46
2024/04/19 10:48:46;;;;;;;6.55;3.72;;;;;;;;;;1904564;75;21047;-46
2024/04/19 10:51:15;;;;;;;10.23;5.20;;;;;;;;;;1914613;75;21027;-46
2024/04/19 10:53:44;;;;;;;6.55;4.00;;;;;;;;;;1908760;74;21110;-47
2024/04/19 10:56:13;;;;;;;7.78;4.35;;;;;;;;;;1905411;75;21031;-46
2024/04/19 10:58:42;;;;;;;4.00;3.45;;;;;;;;;;1905290;75;21114;-44
2024/04/19 11:01:11;;;;;;;5.67;4.35;;;;;;;;;;1905205;75;21007;-45
2024/04/19 11:03:39;;;;;;;7.28;4.20;;;;;;;;;;1854722;77;20994;-45
2024/04/19 11:06:08;;;;;;;6.65;3.58;;;;;;;;;;1832855;78;21117;-45
2024/04/19 11:08:36;;;;;;;4.22;3.72;;;;;;;;;;1889900;75;21169;-46
2024/04/19 11:11:05;;;;;;;6.78;3.85;;;;;;;;;;1885312;75;21188;-45
2024/04/19 11:13:34;;;;;;;11.63;3.83;;;;;;;;;;1886044;75;21106;-46
2024/04/19 11:16:02;;;;;;;5.78;3.77;;;;;;;;;;1885055;75;20997;-46
2024/04/19 11:18:31;;;;;;;6.83;3.40;;;;;;;;;;1891260;75;21082;-45
2024/04/19 11:20:59;;;;;;;5.12;3.58;;;;;;;;;;1890873;75;21032;-45
2024/04/19 11:23:28;;;;;;;4.83;3.75;;;;;;;;;;1890620;75;20984;-46
2024/04/19 11:25:56;;;;;;;6.15;4.20;;;;;;;;;;1888848;75;21135;-45
2024/04/19 11:28:25;;;;;;;7.95;5.10;;;;;;;;;;1887367;75;21201;-45
2024/04/19 11:30:54;;;;;;;9.05;4.62;;;;;;;;;;1891671;75;21020;-46
2024/04/19 11:33:23;;;;;;;6.70;4.00;;;;;;;;;;1895840;75;21032;-45
2024/04/19 11:35:52;;;;;;;11.43;5.60;;;;;;;;;;1905347;75;21024;-45
2024/04/19 11:38:22;;;;;;;10.30;5.67;;;;;;;;;;1900890;75;21012;-45
2024/04/19 11:40:52;;;;;;;10.93;4.55;;;;;;;;;;1872476;77;21093;-46
2024/04/19 11:43:21;;;;;;;10.50;4.33;;;;;;;;;;1871472;77;21054;-46
2024/04/19 11:45:49;;;;;;;8.10;3.50;;;;;;;;;;1872596;77;21017;-45
2024/04/19 11:48:20;;;;;;;7.97;4.25;;;;;;;;;;1872976;75;21046;-45
2024/04/19 11:50:49;;;;;;;8.03;3.70;;;;;;;;;;1872771;77;21174;-46
2024/04/19 11:53:19;;;;;;;6.67;4.10;;;;;;;;;;1872681;76;21132;-46
2024/04/19 11:55:50;;;;;;;8.48;4.15;;;;;;;;;;1872945;75;21100;-46
2024/04/19 11:58:18;;;;;;;5.92;4.30;;;;;;;;;;1872695;77;21616;-45
2024/04/19 12:00:46;;;;;;;5.30;3.50;;;;;;;;;;1872740;77;21068;-46
2024/04/19 12:03:15;;;;;;;8.45;4.00;;;;;;;;;;1872793;76;21045;-46
2024/04/19 12:05:43;;;;;;;8.30;3.80;;;;;;;;;;1872677;76;21107;-45
2024/04/19 12:08:12;;;;;;;10.32;4.15;;;;;;;;;;1872821;77;21107;-45
2024/04/19 12:10:41;;;;;;;10.70;4.35;;;;;;;;;;1872851;76;21065;-45
2024/04/19 12:13:09;;;;;;;6.72;3.72;;;;;;;;;;1872917;77;21030;-44
2024/04/19 12:15:38;;;;;;;8.30;4.75;;;;;;;;;;1872782;76;21050;-45
2024/04/19 12:18:07;;;;;;;7.12;4.25;;;;;;;;;;1872822;77;21089;-46
2024/04/19 12:20:35;;;;;;;8.20;5.03;;;;;;;;;;1872801;77;21124;-45
2024/04/19 12:23:04;;;;;;;6.80;4.58;;;;;;;;;;1872752;77;21042;-44
2024/04/19 12:25:34;;;;;;;6.10;4.40;;;;;;;;;;1872903;77;21026;-45
2024/04/19 12:28:02;;;;;;;4.53;3.33;;;;;;;;;;1872813;77;21124;-46
2024/04/19 12:30:31;;;;;;;5.08;4.00;;;;;;;;;;1872809;75;21022;-47
2024/04/19 12:32:59;;;;;;;7.92;3.90;;;;;;;;;;1872857;77;21119;-46
2024/04/19 12:35:28;;;;;;;6.15;4.37;;;;;;;;;;1872730;77;21050;-47
2024/04/19 12:37:58;;;;;;;6.80;4.65;;;;;;;;;;1872929;77;21099;-47
2024/04/19 12:40:26;;;;;;;6.58;4.03;;;;;;;;;;1872778;77;21602;-48
2024/04/19 12:42:55;;;;;;;6.90;4.12;;;;;;;;;;1872865;77;21088;-45
2024/04/19 12:45:23;;;;;;;7.37;4.10;;;;;;;;;;1872770;76;21112;-44
2024/04/19 12:47:53;;;;;;;5.55;3.90;;;;;;;;;;1872791;77;21090;-44
2024/04/19 12:50:22;;;;;;;6.75;3.67;;;;;;;;;;1872710;77;21025;-45
2024/04/19 12:52:51;;;;;;;5.65;3.75;;;;;;;;;;1872871;75;21103;-44
2024/04/19 12:55:20;;;;;;;7.78;4.30;;;;;;;;;;1872755;75;21125;-44
2024/04/19 12:57:49;;;;;;;6.92;4.37;;;;;;;;;;1872759;77;21306;-45
2024/04/19 13:00:18;;;;;;;4.67;3.47;;;;;;;;;;1872789;75;21034;-45
2024/04/19 13:02:46;;;;;;;8.08;3.42;;;;;;;;;;1872918;75;21143;-45
2024/04/19 13:05:18;;;;;;;6.20;3.05;;;;;;;;;;1872741;77;20998;-44
2024/04/19 13:07:46;;;;;;;7.60;4.55;;;;;;;;;;1872760;77;21142;-46
2024/04/19 13:10:17;;;;;;;9.10;3.80;;;;;;;;;;1872772;75;21151;-46
2024/04/19 13:12:45;;;;;;;4.78;3.75;;;;;;;;;;1872835;76;21474;-46
2024/04/19 13:15:14;;;;;;;7.72;3.58;;;;;;;;;;1872738;76;21041;-46
2024/04/19 13:17:42;;;;;;;7.60;3.72;;;;;;;;;;1872817;77;21101;-46
2024/04/19 13:20:11;;;;;;;10.82;5.35;;;;;;;;;;1872790;77;21121;-46
2024/04/19 13:22:40;;;;;;;5.37;3.30;;;;;;;;;;1872819;77;21082;-46
2024/04/19 13:25:09;;;;;;;7.08;4.00;;;;;;;;;;1872771;77;21026;-46
2024/04/19 13:27:38;;;;;;;8.83;3.83;;;;;;;;;;1872788;77;21021;-47
2024/04/19 13:30:07;;;;;;;4.92;3.40;;;;;;;;;;1872903;77;21108;-46
2024/04/19 13:32:35;;;;;;;7.45;4.37;;;;;;;;;;1872877;77;21026;-46
2024/04/19 13:35:04;;;;;;;6.55;3.70;;;;;;;;;;1872857;77;21038;-46
2024/04/19 13:37:33;;;;;;;5.87;3.55;;;;;;;;;;1872821;76;21005;-46
2024/04/19 13:40:01;;;;;;;4.35;3.22;;;;;;;;;;1872882;77;21099;-46
2024/04/19 13:42:30;;;;;;;5.12;3.17;;;;;;;;;;1872924;77;21093;-46
2024/04/19 13:44:59;;;;;;;5.08;3.40;;;;;;;;;;1872913;77;21038;-46
2024/04/19 13:47:27;;;;;;;4.95;2.80;;;;;;;;;;1873022;75;21073;-46
2024/04/19 13:49:56;;;;;;;6.10;3.65;;;;;;;;;;1872918;77;21021;-46
2024/04/19 13:52:25;;;;;;;10.15;3.00;;;;;;;;;;1872781;75;21058;-47
2024/04/19 13:54:53;;;;;;;4.75;3.60;;;;;;;;;;1872750;75;21196;-46
2024/04/19 13:57:23;;;;;;;4.62;3.42;;;;;;;;;;1872912;77;21175;-46
2024/04/19 13:59:52;;;;;;;6.87;3.27;;;;;;;;;;1872833;77;21025;-46
2024/04/19 14:02:21;;;;;;;5.62;2.95;;;;;;;;;;1872818;77;21037;-46
2024/04/19 14:04:50;;;;;;;5.05;2.70;;;;;;;;;;1872757;77;21034;-46
2024/04/19 14:07:18;;;;;;;4.40;3.08;;;;;;;;;;1872751;75;21042;-47
2024/04/19 14:09:47;;;;;;;7.50;3.40;;;;;;;;;;1872786;77;21080;-46
2024/04/19 14:12:15;;;;;;;11.30;3.20;;;;;;;;;;1872779;75;21053;-46
2024/04/19 14:14:44;;;;;;;3.37;3.08;;;;;;;;;;1872804;77;21013;-45
2024/04/19 14:17:13;;;;;;;8.08;3.98;;;;;;;;;;1872770;77;20990;-45
2024/04/19 14:19:42;;;;;;;6.10;3.22;;;;;;;;;;1872800;77;21111;-45
2024/04/19 14:22:11;;;;;;;9.08;3.05;;;;;;;;;;1872884;77;21109;-45
2024/04/19 14:24:40;;;;;;;4.35;3.95;;;;;;;;;;1872768;77;21468;-45
2024/04/19 14:27:09;;;;;;;5.35;3.20;;;;;;;;;;1872754;77;21041;-45
2024/04/19 14:29:38;;;;;;;4.85;3.12;;;;;;;;;;1872798;77;21133;-45
2024/04/19 14:32:06;;;;;;;5.15;2.90;;;;;;;;;;1872695;75;21115;-46
2024/04/19 14:34:35;;;;;;;6.50;3.33;;;;;;;;;;1872735;77;21111;-45
2024/04/19 14:37:04;;;;;;;5.78;2.98;;;;;;;;;;1872853;77;21018;-46
2024/04/19 14:39:33;;;;;;;6.05;4.05;;;;;;;;;;1872889;77;21094;-45
2024/04/19 14:42:01;;;;;;;7.72;3.92;;;;;;;;;;1872771;77;21038;-46
2024/04/19 14:44:30;;;;;;;4.15;3.45;;;;;;;;;;1872770;77;21107;-46
2024/04/19 14:46:59;;;;;;;6.60;3.40;;;;;;;;;;1872694;77;21123;-46
2024/04/19 14:49:27;;;;;;;6.15;3.80;;;;;;;;;;1872749;76;21077;-45
2024/04/19 14:52:00;;;;;;;14.30;6.33;;;;;;;;;;1872858;77;21041;-46
2024/04/19 14:54:26;;;;;;;16.73;7.47;;;;;;;;;;1872253;75;21573;-45